Father Mychal Judge — WDG3566 — position and weather

sailwx.info

Track history (hours):
 
Tides and Currents Weather Stations Pressure Air Temp Water Temp Dewpoint Dewpoint Depression Visibility Wind Speed Wind Dir Waves Ship Positions

Father Mychal Judge

Owner: Billy Bey Ferry, Weehawken, NJ. More information available from US FCC via Universal Licensing System and Coast Guard Vessel Documentation Center.

Last reported at 2018-Jul-17 14:09 UTC. Time now 2018-Jul-17 17:20 UTC.
Position N 40°46' W 074°01'.

Length 22 m; draft 2 m.

Type: Passenger vessel. MMSI: 366834160.

Date/timePositionNaut miles runAvg speedWind from/ knotsBaromVisibWave heightAir tempDewpointWater temp
2018-Jul-17 14:09N 40°46' W 074°01'322.7
2018-Jul-17 14:01N 40°43' W 074°01'1 2.7
2018-Jul-17 13:30N 40°42' W 074°00'0 0.0
2018-Jul-17 13:01N 40°42' W 074°00'0 0.0
2018-Jul-17 12:31N 40°42' W 074°00'0 0.0
2018-Jul-17 12:01N 40°42' W 074°00'0 0.0
2018-Jul-17 11:31N 40°42' W 074°00'0 0.0
2018-Jul-17 11:01N 40°42' W 074°00'0 0.0
2018-Jul-17 10:31N 40°42' W 074°00'4 0.4
2018-Jul-17 00:29N 40°46' W 074°01'4 4.0
2018-Jul-16 23:30N 40°43' W 074°03'0 0.1
2018-Jul-16 23:00N 40°43' W 074°03'0 0.1
2018-Jul-16 22:30N 40°43' W 074°03'0 0.0
2018-Jul-16 22:01N 40°43' W 074°03'0 0.0
2018-Jul-16 21:30N 40°43' W 074°03'0 0.0
2018-Jul-16 21:00N 40°43' W 074°03'0 0.0
2018-Jul-16 20:31N 40°43' W 074°03'1 1.2
2018-Jul-16 20:00N 40°43' W 074°02'3 1.7
2018-Jul-16 17:58N 40°46' W 074°01'4 8.0
2018-Jul-16 17:31N 40°43' W 074°02'1 2.3
2018-Jul-16 17:00N 40°42' W 074°00'1 2.4
2018-Jul-16 16:30N 40°43' W 074°02'1 2.5
2018-Jul-16 16:00N 40°42' W 074°00'1 2.8
2018-Jul-16 15:30N 40°43' W 074°02'1 2.8
2018-Jul-16 15:01N 40°42' W 074°00'1 2.5
2018-Jul-16 14:31N 40°43' W 074°02'1 2.6
2018-Jul-16 14:01N 40°42' W 074°00'2 3.5
2018-Jul-16 13:30N 40°43' W 074°03'0 0.0
2018-Jul-16 13:00N 40°43' W 074°03'0 0.0
2018-Jul-16 12:30N 40°43' W 074°03'0 0.0
2018-Jul-16 12:01N 40°43' W 074°03'0 0.0
2018-Jul-16 11:30N 40°43' W 074°03'0 0.0
2018-Jul-16 10:59N 40°43' W 074°03'0 0.0
2018-Jul-16 10:30N 40°43' W 074°03'0 0.0
2018-Jul-16 10:01N 40°43' W 074°03'  
2018-Jul-14 01:56N 40°44' W 074°01'4 8.4
2018-Jul-14 01:31N 40°41' W 074°03'2 4.9
2018-Jul-14 01:01N 40°42' W 074°01'2 3.8
2018-Jul-14 00:31N 40°41' W 074°03'2 3.9
2018-Jul-14 00:01N 40°42' W 074°01'2 3.2
2018-Jul-13 23:31N 40°43' W 074°03'0 0.0
2018-Jul-13 23:00N 40°43' W 074°03'0 0.0
2018-Jul-13 22:31N 40°43' W 074°03'0 0.0
2018-Jul-13 22:00N 40°43' W 074°03'0 0.0
2018-Jul-13 21:30N 40°43' W 074°03'0 0.0
2018-Jul-13 21:00N 40°43' W 074°03'1 1.0
2018-Jul-13 20:30N 40°43' W 074°02'1 0.2
2018-Jul-13 14:00N 40°42' W 074°00'2 3.5
2018-Jul-13 13:30N 40°43' W 074°03'0 0.1
2018-Jul-13 13:01N 40°43' W 074°03'0 0.1
2018-Jul-13 12:30N 40°43' W 074°03'0 0.0
2018-Jul-13 12:00N 40°43' W 074°03'0 0.0
2018-Jul-13 11:30N 40°43' W 074°03'0 0.0
2018-Jul-13 11:00N 40°43' W 074°03'0 0.0
2018-Jul-13 10:30N 40°43' W 074°03'0 0.0
2018-Jul-13 10:00N 40°43' W 074°03'0 0.0
2018-Jul-13 09:30N 40°43' W 074°03'0 0.0
2018-Jul-13 02:10N 40°43' W 074°03'211.6
2018-Jul-13 02:00N 40°42' W 074°00'3 5.5
2018-Jul-13 01:31N 40°41' W 074°03'2 4.8
2018-Jul-13 01:01N 40°42' W 074°01'1 2.1
2018-Jul-13 00:31N 40°41' W 074°02'1 2.1
2018-Jul-13 00:01N 40°42' W 074°01'2 3.1
2018-Jul-12 23:30N 40°43' W 074°03'0 0.0
2018-Jul-12 23:00N 40°43' W 074°03'0 0.0
2018-Jul-12 22:30N 40°43' W 074°03'0 0.0
2018-Jul-12 22:00N 40°43' W 074°03'0 0.0
2018-Jul-12 21:31N 40°43' W 074°03'0 0.0
2018-Jul-12 21:00N 40°43' W 074°03'0 0.1
2018-Jul-12 20:30N 40°43' W 074°03'4 0.6
2018-Jul-12 14:24N 40°46' W 074°01'4 9.2
2018-Jul-12 14:00N 40°43' W 074°02'1 1.0
2018-Jul-12 13:30N 40°43' W 074°03'0 0.0
2018-Jul-12 13:00N 40°43' W 074°03'0 0.0
2018-Jul-12 12:30N 40°43' W 074°03'0 0.0
2018-Jul-12 12:00N 40°43' W 074°03'0 0.0
2018-Jul-12 11:30N 40°43' W 074°03'0 0.0
2018-Jul-12 11:00N 40°43' W 074°03'0 0.0
2018-Jul-12 10:30N 40°43' W 074°03'0 0.0
2018-Jul-12 10:01N 40°43' W 074°03'0 0.0
2018-Jul-12 09:30N 40°43' W 074°03'0 0.0
2018-Jul-12 01:53N 40°43' W 074°03'2 5.1
2018-Jul-12 01:30N 40°41' W 074°03'2 4.0
2018-Jul-12 01:01N 40°42' W 074°01'2 3.0
2018-Jul-12 00:31N 40°41' W 074°02'1 3.0
2018-Jul-12 00:00N 40°42' W 074°01'0 0.6
2018-Jul-11 23:31N 40°42' W 074°00'0 0.1
2018-Jul-11 23:01N 40°42' W 074°00'0 0.1
2018-Jul-11 22:31N 40°42' W 074°00'0 0.0
2018-Jul-11 22:01N 40°42' W 074°00'0 0.1
2018-Jul-11 21:30N 40°42' W 074°00'0 0.1
2018-Jul-11 21:01N 40°42' W 074°00'0 0.0
2018-Jul-11 20:30N 40°42' W 074°00'4 8.3
2018-Jul-11 20:00N 40°46' W 074°01'0 0.0
2018-Jul-11 14:15N 40°46' W 074°01'311.3
2018-Jul-11 14:01N 40°44' W 074°01'2 3.4
2018-Jul-11 13:30N 40°42' W 074°00'0 0.1
2018-Jul-11 13:00N 40°42' W 074°00'0 0.1
2018-Jul-11 12:31N 40°42' W 074°00'0 0.0
2018-Jul-11 12:01N 40°42' W 074°00'0 0.1
2018-Jul-11 11:31N 40°42' W 074°00'0 0.1
2018-Jul-11 11:00N 40°42' W 074°00'0 0.0
2018-Jul-11 10:31N 40°42' W 074°00'1 2.6
2018-Jul-11 10:01N 40°43' W 074°02'3 0.3
2018-Jul-11 00:20N 40°46' W 074°01'413.7
2018-Jul-11 00:01N 40°42' W 074°01'0 0.8
2018-Jul-10 23:31N 40°42' W 074°00'0 0.2
2018-Jul-10 23:00N 40°42' W 074°00'0 0.0
2018-Jul-10 22:30N 40°42' W 074°00'0 0.0
2018-Jul-10 22:01N 40°42' W 074°00'0 0.1
2018-Jul-10 21:30N 40°42' W 074°00'0 0.1
2018-Jul-10 21:00N 40°42' W 074°00'0 0.0
2018-Jul-10 20:31N 40°42' W 074°00'0 0.0
2018-Jul-10 20:00N 40°42' W 074°00'1 2.6
2018-Jul-10 19:31N 40°43' W 074°02'1 2.5
2018-Jul-10 19:00N 40°42' W 074°00'1 2.8
2018-Jul-10 18:30N 40°43' W 074°02'1 2.8
2018-Jul-10 18:00N 40°42' W 074°00'2 4.3
2018-Jul-10 17:30N 40°44' W 074°02'0 0.1
2018-Jul-10 14:02N 40°44' W 074°01'126.1
2018-Jul-10 14:01N 40°43' W 074°01'1 2.8
2018-Jul-10 13:30N 40°42' W 074°00'0 0.1
2018-Jul-10 13:01N 40°42' W 074°00'0 0.1
2018-Jul-10 12:31N 40°42' W 074°00'0 0.0
2018-Jul-10 12:00N 40°42' W 074°00'0 0.0
2018-Jul-10 11:30N 40°42' W 074°00'0 0.0
2018-Jul-10 11:00N 40°42' W 074°00'0 0.0
2018-Jul-10 10:31N 40°42' W 074°00'1 2.9
2018-Jul-10 10:01N 40°43' W 074°02'4 0.4
2018-Jul-10 00:20N 40°46' W 074°01'413.6
2018-Jul-10 00:01N 40°42' W 074°01'2 3.2
2018-Jul-09 23:30N 40°43' W 074°03'0 0.0
2018-Jul-09 23:00N 40°43' W 074°03'0 0.5
2018-Jul-09 22:31N 40°43' W 074°02'0 0.2
2018-Jul-09 22:01N 40°43' W 074°02'0 0.1
2018-Jul-09 21:31N 40°43' W 074°02'0 0.4
2018-Jul-09 21:00N 40°43' W 074°03'0 0.0
2018-Jul-09 20:30N 40°43' W 074°03'2 3.5
2018-Jul-09 20:01N 40°44' W 074°01'2 4.3
2018-Jul-09 19:29N 40°46' W 074°01'0 0.0
2018-Jul-09 19:00N 40°46' W 074°01'0 0.0
2018-Jul-09 18:31N 40°46' W 074°01'0 0.0
2018-Jul-09 17:59N 40°46' W 074°01'4 7.5
2018-Jul-09 17:30N 40°43' W 074°02'1 2.6
2018-Jul-09 17:00N 40°42' W 074°00'1 2.5
2018-Jul-09 16:30N 40°43' W 074°02'1 2.5
2018-Jul-09 16:00N 40°42' W 074°00'1 2.7
2018-Jul-09 15:30N 40°43' W 074°02'1 2.7
2018-Jul-09 15:01N 40°42' W 074°00'1 2.8
2018-Jul-09 14:30N 40°43' W 074°02'1 2.8
2018-Jul-09 14:01N 40°42' W 074°00'2 3.6
2018-Jul-09 13:30N 40°43' W 074°03'0 0.0
2018-Jul-09 13:00N 40°43' W 074°03'0 0.0
2018-Jul-09 12:30N 40°43' W 074°03'0 0.0
2018-Jul-09 12:00N 40°43' W 074°03'0 0.0
2018-Jul-09 11:30N 40°43' W 074°03'0 0.0
2018-Jul-09 11:00N 40°43' W 074°03'0 0.0
2018-Jul-09 10:30N 40°43' W 074°03'0 0.0
2018-Jul-09 10:00N 40°43' W 074°03'2 3.3
2018-Jul-09 09:30N 40°44' W 074°02'0 0.0
2018-Jul-09 09:00N 40°44' W 074°02'0 0.0
2018-Jul-09 08:30N 40°44' W 074°02'0 0.0
2018-Jul-09 08:00N 40°44' W 074°02'0 0.0
2018-Jul-09 07:30N 40°44' W 074°02'0 0.0
2018-Jul-09 07:00N 40°44' W 074°02'0 0.0
2018-Jul-09 06:30N 40°44' W 074°02'0 0.0
2018-Jul-09 06:00N 40°44' W 074°02'0 0.0
2018-Jul-09 05:30N 40°44' W 074°02'0 0.0
2018-Jul-09 05:00N 40°44' W 074°02'0 0.0
2018-Jul-09 04:30N 40°44' W 074°02'0 0.0
2018-Jul-09 04:00N 40°44' W 074°02'0 0.0
2018-Jul-08 13:07N 40°44' W 074°02'0 0.5
2018-Jul-08 13:00N 40°44' W 074°02'2 0.3
2018-Jul-08 04:22N 40°46' W 074°01'1 2.7
2018-Jul-08 04:00N 40°45' W 074°01'1 1.2
2018-Jul-08 03:28N 40°46' W 074°00'1 1.6
2018-Jul-08 03:00N 40°45' W 074°01'1 1.4
2018-Jul-08 02:28N 40°46' W 074°00'1 1.3
2018-Jul-08 02:00N 40°45' W 074°01'0 0.4
2018-Jul-08 01:25N 40°45' W 074°01'0 0.2
2018-Jul-08 01:00N 40°45' W 074°01'0 0.4
2018-Jul-08 00:26N 40°45' W 074°01'0 0.9
2018-Jul-08 00:00N 40°46' W 074°01'1 1.2
2018-Jul-07 23:30N 40°46' W 074°01'1 1.2
2018-Jul-07 23:00N 40°45' W 074°01'1 1.6
2018-Jul-07 22:30N 40°46' W 074°00'1 1.8
2018-Jul-07 22:00N 40°45' W 074°01'1 1.5
2018-Jul-07 21:29N 40°46' W 074°00'1 1.3
2018-Jul-07 21:00N 40°45' W 074°01'1 0.9
2018-Jul-07 20:26N 40°46' W 074°00'1 1.4
2018-Jul-07 20:00N 40°45' W 074°01'0 0.8
2018-Jul-07 19:30N 40°46' W 074°01'0 0.7
2018-Jul-07 19:00N 40°45' W 074°01'1 1.3
2018-Jul-07 18:28N 40°46' W 074°00'1 1.8
2018-Jul-07 17:59N 40°45' W 074°01'1 1.5
2018-Jul-07 17:24N 40°46' W 074°00'1 2.1
2018-Jul-07 17:00N 40°45' W 074°01'1 1.4
2018-Jul-07 16:26N 40°46' W 074°00'1 1.6
2018-Jul-07 15:58N 40°45' W 074°01'1 1.5
2018-Jul-07 15:25N 40°46' W 074°00'1 2.0
2018-Jul-07 14:59N 40°45' W 074°01'1 1.4
2018-Jul-07 14:22N 40°46' W 074°00'  
Track history (hours):
 
Tides and Currents Weather Stations Pressure Air Temp Water Temp Dewpoint Dewpoint Depression Visibility Wind Speed Wind Dir Waves Ship Positions

Father Mychal Judge

Owner: Billy Bey Ferry, Weehawken, NJ. More information available from US FCC via Universal Licensing System and Coast Guard Vessel Documentation Center.

Last reported at 2018-Jul-17 14:09 UTC. Time now 2018-Jul-17 17:20 UTC.
Position N 40°46' W 074°01'.

Length 22 m; draft 2 m.

Type: Passenger vessel. MMSI: 366834160.

Date/timePositionNaut miles runAvg speedWind from/ knotsBaromVisibWave heightAir tempDewpointWater temp
2018-Jul-17 14:09N 40°46' W 074°01'322.7
2018-Jul-17 14:01N 40°43' W 074°01'1 2.7
2018-Jul-17 13:30N 40°42' W 074°00'0 0.0
2018-Jul-17 13:01N 40°42' W 074°00'0 0.0
2018-Jul-17 12:31N 40°42' W 074°00'0 0.0
2018-Jul-17 12:01N 40°42' W 074°00'0 0.0
2018-Jul-17 11:31N 40°42' W 074°00'0 0.0
2018-Jul-17 11:01N 40°42' W 074°00'0 0.0
2018-Jul-17 10:31N 40°42' W 074°00'4 0.4
2018-Jul-17 00:29N 40°46' W 074°01'4 4.0
2018-Jul-16 23:30N 40°43' W 074°03'0 0.1
2018-Jul-16 23:00N 40°43' W 074°03'0 0.1
2018-Jul-16 22:30N 40°43' W 074°03'0 0.0
2018-Jul-16 22:01N 40°43' W 074°03'0 0.0
2018-Jul-16 21:30N 40°43' W 074°03'0 0.0
2018-Jul-16 21:00N 40°43' W 074°03'0 0.0
2018-Jul-16 20:31N 40°43' W 074°03'1 1.2
2018-Jul-16 20:00N 40°43' W 074°02'3 1.7
2018-Jul-16 17:58N 40°46' W 074°01'4 8.0
2018-Jul-16 17:31N 40°43' W 074°02'1 2.3
2018-Jul-16 17:00N 40°42' W 074°00'1 2.4
2018-Jul-16 16:30N 40°43' W 074°02'1 2.5
2018-Jul-16 16:00N 40°42' W 074°00'1 2.8
2018-Jul-16 15:30N 40°43' W 074°02'1 2.8
2018-Jul-16 15:01N 40°42' W 074°00'1 2.5
2018-Jul-16 14:31N 40°43' W 074°02'1 2.6
2018-Jul-16 14:01N 40°42' W 074°00'2 3.5
2018-Jul-16 13:30N 40°43' W 074°03'0 0.0
2018-Jul-16 13:00N 40°43' W 074°03'0 0.0
2018-Jul-16 12:30N 40°43' W 074°03'0 0.0
2018-Jul-16 12:01N 40°43' W 074°03'0 0.0
2018-Jul-16 11:30N 40°43' W 074°03'0 0.0
2018-Jul-16 10:59N 40°43' W 074°03'0 0.0
2018-Jul-16 10:30N 40°43' W 074°03'0 0.0
2018-Jul-16 10:01N 40°43' W 074°03'  
2018-Jul-14 01:56N 40°44' W 074°01'4 8.4
2018-Jul-14 01:31N 40°41' W 074°03'2 4.9
2018-Jul-14 01:01N 40°42' W 074°01'2 3.8
2018-Jul-14 00:31N 40°41' W 074°03'2 3.9
2018-Jul-14 00:01N 40°42' W 074°01'2 3.2
2018-Jul-13 23:31N 40°43' W 074°03'0 0.0
2018-Jul-13 23:00N 40°43' W 074°03'0 0.0
2018-Jul-13 22:31N 40°43' W 074°03'0 0.0
2018-Jul-13 22:00N 40°43' W 074°03'0 0.0
2018-Jul-13 21:30N 40°43' W 074°03'0 0.0
2018-Jul-13 21:00N 40°43' W 074°03'1 1.0
2018-Jul-13 20:30N 40°43' W 074°02'1 0.2
2018-Jul-13 14:00N 40°42' W 074°00'2 3.5
2018-Jul-13 13:30N 40°43' W 074°03'0 0.1
2018-Jul-13 13:01N 40°43' W 074°03'0 0.1
2018-Jul-13 12:30N 40°43' W 074°03'0 0.0
2018-Jul-13 12:00N 40°43' W 074°03'0 0.0
2018-Jul-13 11:30N 40°43' W 074°03'0 0.0
2018-Jul-13 11:00N 40°43' W 074°03'0 0.0
2018-Jul-13 10:30N 40°43' W 074°03'0 0.0
2018-Jul-13 10:00N 40°43' W 074°03'0 0.0
2018-Jul-13 09:30N 40°43' W 074°03'0 0.0
2018-Jul-13 02:10N 40°43' W 074°03'211.6
2018-Jul-13 02:00N 40°42' W 074°00'3 5.5
2018-Jul-13 01:31N 40°41' W 074°03'2 4.8
2018-Jul-13 01:01N 40°42' W 074°01'1 2.1
2018-Jul-13 00:31N 40°41' W 074°02'1 2.1
2018-Jul-13 00:01N 40°42' W 074°01'2 3.1
2018-Jul-12 23:30N 40°43' W 074°03'0 0.0
2018-Jul-12 23:00N 40°43' W 074°03'0 0.0
2018-Jul-12 22:30N 40°43' W 074°03'0 0.0
2018-Jul-12 22:00N 40°43' W 074°03'0 0.0
2018-Jul-12 21:31N 40°43' W 074°03'0 0.0
2018-Jul-12 21:00N 40°43' W 074°03'0 0.1
2018-Jul-12 20:30N 40°43' W 074°03'4 0.6
2018-Jul-12 14:24N 40°46' W 074°01'4 9.2
2018-Jul-12 14:00N 40°43' W 074°02'1 1.0
2018-Jul-12 13:30N 40°43' W 074°03'0 0.0
2018-Jul-12 13:00N 40°43' W 074°03'0 0.0
2018-Jul-12 12:30N 40°43' W 074°03'0 0.0
2018-Jul-12 12:00N 40°43' W 074°03'0 0.0
2018-Jul-12 11:30N 40°43' W 074°03'0 0.0
2018-Jul-12 11:00N 40°43' W 074°03'0 0.0
2018-Jul-12 10:30N 40°43' W 074°03'0 0.0
2018-Jul-12 10:01N 40°43' W 074°03'0 0.0
2018-Jul-12 09:30N 40°43' W 074°03'0 0.0
2018-Jul-12 01:53N 40°43' W 074°03'2 5.1
2018-Jul-12 01:30N 40°41' W 074°03'2 4.0
2018-Jul-12 01:01N 40°42' W 074°01'2 3.0
2018-Jul-12 00:31N 40°41' W 074°02'1 3.0
2018-Jul-12 00:00N 40°42' W 074°01'0 0.6
2018-Jul-11 23:31N 40°42' W 074°00'0 0.1
2018-Jul-11 23:01N 40°42' W 074°00'0 0.1
2018-Jul-11 22:31N 40°42' W 074°00'0 0.0
2018-Jul-11 22:01N 40°42' W 074°00'0 0.1
2018-Jul-11 21:30N 40°42' W 074°00'0 0.1
2018-Jul-11 21:01N 40°42' W 074°00'0 0.0
2018-Jul-11 20:30N 40°42' W 074°00'4 8.3
2018-Jul-11 20:00N 40°46' W 074°01'0 0.0
2018-Jul-11 14:15N 40°46' W 074°01'311.3
2018-Jul-11 14:01N 40°44' W 074°01'2 3.4
2018-Jul-11 13:30N 40°42' W 074°00'0 0.1
2018-Jul-11 13:00N 40°42' W 074°00'0 0.1
2018-Jul-11 12:31N 40°42' W 074°00'0 0.0
2018-Jul-11 12:01N 40°42' W 074°00'0 0.1
2018-Jul-11 11:31N 40°42' W 074°00'0 0.1
2018-Jul-11 11:00N 40°42' W 074°00'0 0.0
2018-Jul-11 10:31N 40°42' W 074°00'1 2.6
2018-Jul-11 10:01N 40°43' W 074°02'3 0.3
2018-Jul-11 00:20N 40°46' W 074°01'413.7
2018-Jul-11 00:01N 40°42' W 074°01'0 0.8
2018-Jul-10 23:31N 40°42' W 074°00'0 0.2
2018-Jul-10 23:00N 40°42' W 074°00'0 0.0
2018-Jul-10 22:30N 40°42' W 074°00'0 0.0
2018-Jul-10 22:01N 40°42' W 074°00'0 0.1
2018-Jul-10 21:30N 40°42' W 074°00'0 0.1
2018-Jul-10 21:00N 40°42' W 074°00'0 0.0
2018-Jul-10 20:31N 40°42' W 074°00'0 0.0
2018-Jul-10 20:00N 40°42' W 074°00'1 2.6
2018-Jul-10 19:31N 40°43' W 074°02'1 2.5
2018-Jul-10 19:00N 40°42' W 074°00'1 2.8
2018-Jul-10 18:30N 40°43' W 074°02'1 2.8
2018-Jul-10 18:00N 40°42' W 074°00'2 4.3
2018-Jul-10 17:30N 40°44' W 074°02'0 0.1
2018-Jul-10 14:02N 40°44' W 074°01'126.1
2018-Jul-10 14:01N 40°43' W 074°01'1 2.8
2018-Jul-10 13:30N 40°42' W 074°00'0 0.1
2018-Jul-10 13:01N 40°42' W 074°00'0 0.1
2018-Jul-10 12:31N 40°42' W 074°00'0 0.0
2018-Jul-10 12:00N 40°42' W 074°00'0 0.0
2018-Jul-10 11:30N 40°42' W 074°00'0 0.0
2018-Jul-10 11:00N 40°42' W 074°00'0 0.0
2018-Jul-10 10:31N 40°42' W 074°00'1 2.9
2018-Jul-10 10:01N 40°43' W 074°02'4 0.4
2018-Jul-10 00:20N 40°46' W 074°01'413.6
2018-Jul-10 00:01N 40°42' W 074°01'2 3.2
2018-Jul-09 23:30N 40°43' W 074°03'0 0.0
2018-Jul-09 23:00N 40°43' W 074°03'0 0.5
2018-Jul-09 22:31N 40°43' W 074°02'0 0.2
2018-Jul-09 22:01N 40°43' W 074°02'0 0.1
2018-Jul-09 21:31N 40°43' W 074°02'0 0.4
2018-Jul-09 21:00N 40°43' W 074°03'0 0.0
2018-Jul-09 20:30N 40°43' W 074°03'2 3.5
2018-Jul-09 20:01N 40°44' W 074°01'2 4.3
2018-Jul-09 19:29N 40°46' W 074°01'0 0.0
2018-Jul-09 19:00N 40°46' W 074°01'0 0.0
2018-Jul-09 18:31N 40°46' W 074°01'0 0.0
2018-Jul-09 17:59N 40°46' W 074°01'4 7.5
2018-Jul-09 17:30N 40°43' W 074°02'1 2.6
2018-Jul-09 17:00N 40°42' W 074°00'1 2.5
2018-Jul-09 16:30N 40°43' W 074°02'1 2.5
2018-Jul-09 16:00N 40°42' W 074°00'1 2.7
2018-Jul-09 15:30N 40°43' W 074°02'1 2.7
2018-Jul-09 15:01N 40°42' W 074°00'1 2.8
2018-Jul-09 14:30N 40°43' W 074°02'1 2.8
2018-Jul-09 14:01N 40°42' W 074°00'2 3.6
2018-Jul-09 13:30N 40°43' W 074°03'0 0.0
2018-Jul-09 13:00N 40°43' W 074°03'0 0.0
2018-Jul-09 12:30N 40°43' W 074°03'0 0.0
2018-Jul-09 12:00N 40°43' W 074°03'0 0.0
2018-Jul-09 11:30N 40°43' W 074°03'0 0.0
2018-Jul-09 11:00N 40°43' W 074°03'0 0.0
2018-Jul-09 10:30N 40°43' W 074°03'0 0.0
2018-Jul-09 10:00N 40°43' W 074°03'2 3.3
2018-Jul-09 09:30N 40°44' W 074°02'0 0.0
2018-Jul-09 09:00N 40°44' W 074°02'0 0.0
2018-Jul-09 08:30N 40°44' W 074°02'0 0.0
2018-Jul-09 08:00N 40°44' W 074°02'0 0.0
2018-Jul-09 07:30N 40°44' W 074°02'0 0.0
2018-Jul-09 07:00N 40°44' W 074°02'0 0.0
2018-Jul-09 06:30N 40°44' W 074°02'0 0.0
2018-Jul-09 06:00N 40°44' W 074°02'0 0.0
2018-Jul-09 05:30N 40°44' W 074°02'0 0.0
2018-Jul-09 05:00N 40°44' W 074°02'0 0.0
2018-Jul-09 04:30N 40°44' W 074°02'0 0.0
2018-Jul-09 04:00N 40°44' W 074°02'0 0.0
2018-Jul-08 13:07N 40°44' W 074°02'0 0.5
2018-Jul-08 13:00N 40°44' W 074°02'2 0.3
2018-Jul-08 04:22N 40°46' W 074°01'1 2.7
2018-Jul-08 04:00N 40°45' W 074°01'1 1.2
2018-Jul-08 03:28N 40°46' W 074°00'1 1.6
2018-Jul-08 03:00N 40°45' W 074°01'1 1.4
2018-Jul-08 02:28N 40°46' W 074°00'1 1.3
2018-Jul-08 02:00N 40°45' W 074°01'0 0.4
2018-Jul-08 01:25N 40°45' W 074°01'0 0.2
2018-Jul-08 01:00N 40°45' W 074°01'0 0.4
2018-Jul-08 00:26N 40°45' W 074°01'0 0.9
2018-Jul-08 00:00N 40°46' W 074°01'1 1.2
2018-Jul-07 23:30N 40°46' W 074°01'1 1.2
2018-Jul-07 23:00N 40°45' W 074°01'1 1.6
2018-Jul-07 22:30N 40°46' W 074°00'1 1.8
2018-Jul-07 22:00N 40°45' W 074°01'1 1.5
2018-Jul-07 21:29N 40°46' W 074°00'1 1.3
2018-Jul-07 21:00N 40°45' W 074°01'1 0.9
2018-Jul-07 20:26N 40°46' W 074°00'1 1.4
2018-Jul-07 20:00N 40°45' W 074°01'0 0.8
2018-Jul-07 19:30N 40°46' W 074°01'0 0.7
2018-Jul-07 19:00N 40°45' W 074°01'1 1.3
2018-Jul-07 18:28N 40°46' W 074°00'1 1.8
2018-Jul-07 17:59N 40°45' W 074°01'1 1.5
2018-Jul-07 17:24N 40°46' W 074°00'1 2.1
2018-Jul-07 17:00N 40°45' W 074°01'1 1.4
2018-Jul-07 16:26N 40°46' W 074°00'1 1.6
2018-Jul-07 15:58N 40°45' W 074°01'1 1.5
2018-Jul-07 15:25N 40°46' W 074°00'1 2.0
2018-Jul-07 14:59N 40°45' W 074°01'1 1.4
2018-Jul-07 14:22N 40°46' W 074°00'  

Dump ship's entire track history